sensor_id;sensor_type;location;lat;lon;timestamp;P1;durP1;ratioP1;P2;durP2;ratioP2
36799;SDS011;22752;51.960;5.886;2022-08-18T00:02:06;27.42;;;24.48;;
36799;SDS011;22752;51.960;5.886;2022-08-18T00:04:37;30.38;;;24.80;;
36799;SDS011;22752;51.960;5.886;2022-08-18T00:07:04;25.58;;;22.42;;
36799;SDS011;22752;51.960;5.886;2022-08-18T00:09:33;31.27;;;26.40;;
36799;SDS011;22752;51.960;5.886;2022-08-18T00:12:00;26.40;;;23.50;;
36799;SDS011;22752;51.960;5.886;2022-08-18T00:14:28;25.73;;;22.92;;
36799;SDS011;22752;51.960;5.886;2022-08-18T00:16:53;31.67;;;26.00;;
36799;SDS011;22752;51.960;5.886;2022-08-18T00:19:20;26.45;;;23.70;;
36799;SDS011;22752;51.960;5.886;2022-08-18T00:21:47;25.92;;;23.10;;
36799;SDS011;22752;51.960;5.886;2022-08-18T00:24:12;26.08;;;23.20;;
36799;SDS011;22752;51.960;5.886;2022-08-18T00:26:38;25.10;;;22.40;;
36799;SDS011;22752;51.960;5.886;2022-08-18T00:29:04;27.73;;;24.10;;
36799;SDS011;22752;51.960;5.886;2022-08-18T00:31:30;25.38;;;22.58;;
36799;SDS011;22752;51.960;5.886;2022-08-18T00:33:55;28.63;;;25.00;;
36799;SDS011;22752;51.960;5.886;2022-08-18T00:36:21;26.77;;;23.05;;
36799;SDS011;22752;51.960;5.886;2022-08-18T00:38:47;24.40;;;21.80;;
36799;SDS011;22752;51.960;5.886;2022-08-18T00:41:13;27.98;;;22.70;;
36799;SDS011;22752;51.960;5.886;2022-08-18T00:43:43;23.75;;;21.13;;
36799;SDS011;22752;51.960;5.886;2022-08-18T00:46:16;30.73;;;26.63;;
36799;SDS011;22752;51.960;5.886;2022-08-18T00:48:47;25.88;;;22.98;;
36799;SDS011;22752;51.960;5.886;2022-08-18T00:54:18;25.38;;;22.65;;
36799;SDS011;22752;51.960;5.886;2022-08-18T00:56:52;28.33;;;23.80;;
36799;SDS011;22752;51.960;5.886;2022-08-18T00:59:23;26.60;;;21.95;;
36799;SDS011;22752;51.960;5.886;2022-08-18T01:01:56;23.75;;;21.20;;
36799;SDS011;22752;51.960;5.886;2022-08-18T01:07:04;25.73;;;23.02;;
36799;SDS011;22752;51.960;5.886;2022-08-18T01:09:48;25.70;;;22.88;;
36799;SDS011;22752;51.960;5.886;2022-08-18T01:12:15;20.42;;;18.13;;
36799;SDS011;22752;51.960;5.886;2022-08-18T01:14:42;25.23;;;21.88;;
36799;SDS011;22752;51.960;5.886;2022-08-18T01:17:08;26.45;;;21.75;;
36799;SDS011;22752;51.960;5.886;2022-08-18T01:19:52;28.60;;;21.23;;
36799;SDS011;22752;51.960;5.886;2022-08-18T01:22:38;19.67;;;17.58;;
36799;SDS011;22752;51.960;5.886;2022-08-18T01:25:14;21.98;;;18.73;;
36799;SDS011;22752;51.960;5.886;2022-08-18T01:28:00;21.55;;;19.02;;
36799;SDS011;22752;51.960;5.886;2022-08-18T01:30:28;23.13;;;18.98;;
36799;SDS011;22752;51.960;5.886;2022-08-18T01:32:55;20.88;;;18.50;;
36799;SDS011;22752;51.960;5.886;2022-08-18T01:35:23;23.23;;;19.42;;
36799;SDS011;22752;51.960;5.886;2022-08-18T01:37:51;22.90;;;19.20;;
36799;SDS011;22752;51.960;5.886;2022-08-18T01:40:18;16.95;;;14.75;;
36799;SDS011;22752;51.960;5.886;2022-08-18T01:42:46;20.30;;;18.10;;
36799;SDS011;22752;51.960;5.886;2022-08-18T01:45:16;20.75;;;16.65;;
36799;SDS011;22752;51.960;5.886;2022-08-18T01:47:42;18.70;;;15.75;;
36799;SDS011;22752;51.960;5.886;2022-08-18T01:50:09;20.80;;;17.60;;
36799;SDS011;22752;51.960;5.886;2022-08-18T01:52:36;20.70;;;17.02;;
36799;SDS011;22752;51.960;5.886;2022-08-18T01:55:02;16.13;;;14.43;;
36799;SDS011;22752;51.960;5.886;2022-08-18T01:57:29;17.15;;;14.60;;
36799;SDS011;22752;51.960;5.886;2022-08-18T01:59:54;15.85;;;13.20;;
36799;SDS011;22752;51.960;5.886;2022-08-18T02:02:25;17.05;;;14.75;;
36799;SDS011;22752;51.960;5.886;2022-08-18T02:04:56;14.18;;;12.23;;
36799;SDS011;22752;51.960;5.886;2022-08-18T02:07:26;17.33;;;14.88;;
36799;SDS011;22752;51.960;5.886;2022-08-18T02:09:52;13.98;;;12.57;;
36799;SDS011;22752;51.960;5.886;2022-08-18T02:12:18;17.60;;;15.10;;
36799;SDS011;22752;51.960;5.886;2022-08-18T02:14:44;15.02;;;12.48;;
36799;SDS011;22752;51.960;5.886;2022-08-18T02:17:10;16.00;;;13.68;;
36799;SDS011;22752;51.960;5.886;2022-08-18T02:19:38;15.02;;;13.45;;
36799;SDS011;22752;51.960;5.886;2022-08-18T02:22:07;13.73;;;10.82;;
36799;SDS011;22752;51.960;5.886;2022-08-18T02:24:34;15.73;;;13.25;;
36799;SDS011;22752;51.960;5.886;2022-08-18T02:27:00;12.52;;;11.07;;
36799;SDS011;22752;51.960;5.886;2022-08-18T02:29:26;14.30;;;12.77;;
36799;SDS011;22752;51.960;5.886;2022-08-18T02:31:52;16.17;;;14.35;;
36799;SDS011;22752;51.960;5.886;2022-08-18T02:34:18;16.88;;;15.20;;
36799;SDS011;22752;51.960;5.886;2022-08-18T02:36:44;17.63;;;14.70;;
36799;SDS011;22752;51.960;5.886;2022-08-18T02:39:09;16.30;;;13.57;;
36799;SDS011;22752;51.960;5.886;2022-08-18T02:41:36;11.63;;;10.43;;
36799;SDS011;22752;51.960;5.886;2022-08-18T02:44:01;14.98;;;12.15;;
36799;SDS011;22752;51.960;5.886;2022-08-18T02:46:28;11.85;;;10.57;;
36799;SDS011;22752;51.960;5.886;2022-08-18T02:48:54;16.95;;;11.70;;
36799;SDS011;22752;51.960;5.886;2022-08-18T02:51:20;15.90;;;14.00;;
36799;SDS011;22752;51.960;5.886;2022-08-18T02:53:46;20.05;;;14.35;;
36799;SDS011;22752;51.960;5.886;2022-08-18T02:58:47;18.40;;;14.32;;
36799;SDS011;22752;51.960;5.886;2022-08-18T03:01:34;13.80;;;11.93;;
36799;SDS011;22752;51.960;5.886;2022-08-18T03:04:05;12.73;;;11.35;;
36799;SDS011;22752;51.960;5.886;2022-08-18T03:06:33;14.15;;;11.70;;
36799;SDS011;22752;51.960;5.886;2022-08-18T03:09:01;14.07;;;11.98;;
36799;SDS011;22752;51.960;5.886;2022-08-18T03:11:28;14.73;;;10.90;;
36799;SDS011;22752;51.960;5.886;2022-08-18T03:13:54;14.18;;;10.18;;
36799;SDS011;22752;51.960;5.886;2022-08-18T03:16:21;13.82;;;11.38;;
36799;SDS011;22752;51.960;5.886;2022-08-18T03:18:48;15.13;;;12.70;;
36799;SDS011;22752;51.960;5.886;2022-08-18T03:21:19;11.45;;;9.98;;
36799;SDS011;22752;51.960;5.886;2022-08-18T03:23:47;10.18;;;8.60;;
36799;SDS011;22752;51.960;5.886;2022-08-18T03:26:15;9.75;;;8.75;;
36799;SDS011;22752;51.960;5.886;2022-08-18T03:28:42;12.23;;;10.80;;
36799;SDS011;22752;51.960;5.886;2022-08-18T03:31:10;10.02;;;8.95;;
36799;SDS011;22752;51.960;5.886;2022-08-18T03:33:38;13.40;;;10.80;;
36799;SDS011;22752;51.960;5.886;2022-08-18T03:36:09;10.68;;;8.95;;
36799;SDS011;22752;51.960;5.886;2022-08-18T03:38:37;12.95;;;10.32;;
36799;SDS011;22752;51.960;5.886;2022-08-18T03:41:08;11.38;;;9.30;;
36799;SDS011;22752;51.960;5.886;2022-08-18T03:43:35;11.80;;;9.10;;
36799;SDS011;22752;51.960;5.886;2022-08-18T03:46:04;13.60;;;9.18;;
36799;SDS011;22752;51.960;5.886;2022-08-18T03:48:33;9.73;;;8.73;;
36799;SDS011;22752;51.960;5.886;2022-08-18T03:51:07;12.55;;;9.30;;
36799;SDS011;22752;51.960;5.886;2022-08-18T03:53:48;11.60;;;8.98;;
36799;SDS011;22752;51.960;5.886;2022-08-18T03:56:15;10.98;;;9.63;;
36799;SDS011;22752;51.960;5.886;2022-08-18T03:58:48;10.90;;;8.98;;
36799;SDS011;22752;51.960;5.886;2022-08-18T04:01:22;10.57;;;9.48;;
36799;SDS011;22752;51.960;5.886;2022-08-18T04:03:53;14.88;;;11.15;;
36799;SDS011;22752;51.960;5.886;2022-08-18T04:06:25;10.77;;;9.02;;
36799;SDS011;22752;51.960;5.886;2022-08-18T04:08:54;12.00;;;10.23;;
36799;SDS011;22752;51.960;5.886;2022-08-18T04:11:21;11.68;;;9.55;;
36799;SDS011;22752;51.960;5.886;2022-08-18T04:13:47;12.23;;;9.02;;
36799;SDS011;22752;51.960;5.886;2022-08-18T04:16:13;13.20;;;9.85;;
36799;SDS011;22752;51.960;5.886;2022-08-18T04:18:39;14.07;;;9.85;;
36799;SDS011;22752;51.960;5.886;2022-08-18T04:21:06;12.30;;;10.05;;
36799;SDS011;22752;51.960;5.886;2022-08-18T04:23:34;11.95;;;10.10;;
36799;SDS011;22752;51.960;5.886;2022-08-18T04:26:01;12.43;;;9.25;;
36799;SDS011;22752;51.960;5.886;2022-08-18T04:28:27;11.18;;;10.07;;
36799;SDS011;22752;51.960;5.886;2022-08-18T04:30:53;9.98;;;8.65;;
36799;SDS011;22752;51.960;5.886;2022-08-18T04:33:21;12.77;;;10.07;;
36799;SDS011;22752;51.960;5.886;2022-08-18T04:35:46;14.15;;;9.35;;
36799;SDS011;22752;51.960;5.886;2022-08-18T04:38:12;10.57;;;9.07;;
36799;SDS011;22752;51.960;5.886;2022-08-18T04:40:38;13.30;;;9.02;;
36799;SDS011;22752;51.960;5.886;2022-08-18T04:43:05;10.57;;;8.30;;
36799;SDS011;22752;51.960;5.886;2022-08-18T04:45:36;11.13;;;7.82;;
36799;SDS011;22752;51.960;5.886;2022-08-18T04:48:04;9.38;;;7.80;;
36799;SDS011;22752;51.960;5.886;2022-08-18T04:50:30;8.75;;;7.80;;
36799;SDS011;22752;51.960;5.886;2022-08-18T04:52:56;10.63;;;8.90;;
36799;SDS011;22752;51.960;5.886;2022-08-18T04:55:47;12.82;;;9.07;;
36799;SDS011;22752;51.960;5.886;2022-08-18T04:58:15;11.38;;;9.25;;
36799;SDS011;22752;51.960;5.886;2022-08-18T05:00:45;13.38;;;9.60;;
36799;SDS011;22752;51.960;5.886;2022-08-18T05:03:11;12.27;;;9.90;;
36799;SDS011;22752;51.960;5.886;2022-08-18T05:05:37;14.80;;;10.00;;
36799;SDS011;22752;51.960;5.886;2022-08-18T05:08:03;11.77;;;10.07;;
36799;SDS011;22752;51.960;5.886;2022-08-18T05:10:29;10.15;;;9.07;;
36799;SDS011;22752;51.960;5.886;2022-08-18T05:12:55;14.15;;;10.77;;
36799;SDS011;22752;51.960;5.886;2022-08-18T05:15:21;14.60;;;11.32;;
36799;SDS011;22752;51.960;5.886;2022-08-18T05:17:47;16.33;;;12.23;;
36799;SDS011;22752;51.960;5.886;2022-08-18T05:20:12;15.60;;;12.00;;
36799;SDS011;22752;51.960;5.886;2022-08-18T05:22:39;13.75;;;11.70;;
36799;SDS011;22752;51.960;5.886;2022-08-18T05:25:06;12.93;;;9.98;;
36799;SDS011;22752;51.960;5.886;2022-08-18T05:27:35;16.70;;;12.95;;
36799;SDS011;22752;51.960;5.886;2022-08-18T05:30:03;23.13;;;13.18;;
36799;SDS011;22752;51.960;5.886;2022-08-18T05:32:32;18.55;;;13.57;;
36799;SDS011;22752;51.960;5.886;2022-08-18T05:35:15;18.70;;;12.95;;
36799;SDS011;22752;51.960;5.886;2022-08-18T05:40:12;16.40;;;11.55;;
36799;SDS011;22752;51.960;5.886;2022-08-18T05:42:39;14.48;;;11.23;;
36799;SDS011;22752;51.960;5.886;2022-08-18T05:45:10;16.88;;;11.48;;
36799;SDS011;22752;51.960;5.886;2022-08-18T05:47:39;18.17;;;10.95;;
36799;SDS011;22752;51.960;5.886;2022-08-18T05:50:06;16.67;;;10.25;;
36799;SDS011;22752;51.960;5.886;2022-08-18T05:52:39;13.68;;;9.13;;
36799;SDS011;22752;51.960;5.886;2022-08-18T05:55:30;17.20;;;10.80;;
36799;SDS011;22752;51.960;5.886;2022-08-18T05:58:27;12.80;;;8.63;;
36799;SDS011;22752;51.960;5.886;2022-08-18T06:00:59;11.23;;;7.22;;
36799;SDS011;22752;51.960;5.886;2022-08-18T06:05:57;11.05;;;6.78;;
36799;SDS011;22752;51.960;5.886;2022-08-18T06:08:39;14.38;;;8.65;;
36799;SDS011;22752;51.960;5.886;2022-08-18T06:11:08;14.48;;;8.60;;
36799;SDS011;22752;51.960;5.886;2022-08-18T06:13:37;14.35;;;8.82;;
36799;SDS011;22752;51.960;5.886;2022-08-18T06:16:14;11.23;;;6.90;;
36799;SDS011;22752;51.960;5.886;2022-08-18T06:28:16;12.95;;;7.63;;
36799;SDS011;22752;51.960;5.886;2022-08-18T06:41:54;9.05;;;7.22;;
36799;SDS011;22752;51.960;5.886;2022-08-18T06:44:30;11.10;;;7.32;;
36799;SDS011;22752;51.960;5.886;2022-08-18T06:49:44;11.77;;;7.25;;
36799;SDS011;22752;51.960;5.886;2022-08-18T07:00:01;11.32;;;5.28;;
36799;SDS011;22752;51.960;5.886;2022-08-18T07:02:50;6.72;;;4.68;;
36799;SDS011;22752;51.960;5.886;2022-08-18T07:10:31;6.72;;;5.00;;
36799;SDS011;22752;51.960;5.886;2022-08-18T07:13:36;10.00;;;4.72;;
36799;SDS011;22752;51.960;5.886;2022-08-18T07:16:14;9.00;;;4.72;;
36799;SDS011;22752;51.960;5.886;2022-08-18T07:21:22;8.80;;;4.88;;
36799;SDS011;22752;51.960;5.886;2022-08-18T07:24:12;8.00;;;4.35;;
36799;SDS011;22752;51.960;5.886;2022-08-18T07:35:24;6.75;;;4.45;;
36799;SDS011;22752;51.960;5.886;2022-08-18T07:37:59;6.80;;;3.95;;
36799;SDS011;22752;51.960;5.886;2022-08-18T07:40:43;9.43;;;3.85;;
36799;SDS011;22752;51.960;5.886;2022-08-18T07:46:14;9.80;;;3.90;;
36799;SDS011;22752;51.960;5.886;2022-08-18T07:48:55;5.60;;;3.78;;
36799;SDS011;22752;51.960;5.886;2022-08-18T07:54:14;5.97;;;3.38;;
36799;SDS011;22752;51.960;5.886;2022-08-18T07:59:41;8.70;;;4.13;;
36799;SDS011;22752;51.960;5.886;2022-08-18T08:05:19;7.65;;;3.67;;
36799;SDS011;22752;51.960;5.886;2022-08-18T08:07:55;9.95;;;3.95;;
36799;SDS011;22752;51.960;5.886;2022-08-18T08:21:13;4.33;;;3.20;;
36799;SDS011;22752;51.960;5.886;2022-08-18T08:34:19;7.50;;;3.85;;
36799;SDS011;22752;51.960;5.886;2022-08-18T08:37:04;4.30;;;3.03;;
36799;SDS011;22752;51.960;5.886;2022-08-18T08:42:36;7.70;;;3.22;;
36799;SDS011;22752;51.960;5.886;2022-08-18T08:45:37;6.38;;;3.72;;
36799;SDS011;22752;51.960;5.886;2022-08-18T08:51:10;5.57;;;3.75;;
36799;SDS011;22752;51.960;5.886;2022-08-18T08:54:44;7.85;;;4.30;;
36799;SDS011;22752;51.960;5.886;2022-08-18T08:56:48;5.70;;;3.42;;
36799;SDS011;22752;51.960;5.886;2022-08-18T08:59:17;5.85;;;3.45;;
36799;SDS011;22752;51.960;5.886;2022-08-18T09:10:13;8.32;;;3.60;;
36799;SDS011;22752;51.960;5.886;2022-08-18T09:16:00;5.50;;;3.58;;
36799;SDS011;22752;51.960;5.886;2022-08-18T09:18:37;4.90;;;2.92;;
36799;SDS011;22752;51.960;5.886;2022-08-18T09:21:15;4.03;;;2.92;;
36799;SDS011;22752;51.960;5.886;2022-08-18T09:24:07;4.82;;;2.88;;
36799;SDS011;22752;51.960;5.886;2022-08-18T09:40:44;3.92;;;3.38;;
36799;SDS011;22752;51.960;5.886;2022-08-18T09:46:04;6.70;;;3.20;;
36799;SDS011;22752;51.960;5.886;2022-08-18T09:48:35;7.95;;;3.40;;
36799;SDS011;22752;51.960;5.886;2022-08-18T09:56:12;3.83;;;2.97;;
36799;SDS011;22752;51.960;5.886;2022-08-18T09:58:49;5.50;;;3.00;;
36799;SDS011;22752;51.960;5.886;2022-08-18T10:06:40;7.57;;;2.85;;
36799;SDS011;22752;51.960;5.886;2022-08-18T10:09:41;4.45;;;2.70;;
36799;SDS011;22752;51.960;5.886;2022-08-18T10:12:14;3.80;;;2.60;;
36799;SDS011;22752;51.960;5.886;2022-08-18T10:17:49;4.10;;;2.70;;
36799;SDS011;22752;51.960;5.886;2022-08-18T10:20:34;5.03;;;2.80;;
36799;SDS011;22752;51.960;5.886;2022-08-18T10:23:06;6.35;;;2.72;;
36799;SDS011;22752;51.960;5.886;2022-08-18T10:25:37;4.28;;;2.80;;
36799;SDS011;22752;51.960;5.886;2022-08-18T10:28:11;3.65;;;2.72;;
36799;SDS011;22752;51.960;5.886;2022-08-18T10:31:13;3.85;;;2.65;;
36799;SDS011;22752;51.960;5.886;2022-08-18T10:33:59;4.57;;;2.50;;
36799;SDS011;22752;51.960;5.886;2022-08-18T10:39:10;3.67;;;2.80;;
36799;SDS011;22752;51.960;5.886;2022-08-18T10:41:45;3.53;;;2.50;;
36799;SDS011;22752;51.960;5.886;2022-08-18T10:44:22;5.65;;;2.92;;
36799;SDS011;22752;51.960;5.886;2022-08-18T10:46:48;3.40;;;2.70;;
36799;SDS011;22752;51.960;5.886;2022-08-18T10:49:17;3.60;;;2.75;;
36799;SDS011;22752;51.960;5.886;2022-08-18T11:00:20;5.55;;;3.38;;
36799;SDS011;22752;51.960;5.886;2022-08-18T11:03:00;6.60;;;3.40;;
36799;SDS011;22752;51.960;5.886;2022-08-18T11:05:47;5.68;;;3.42;;
36799;SDS011;22752;51.960;5.886;2022-08-18T11:08:13;6.50;;;3.65;;
36799;SDS011;22752;51.960;5.886;2022-08-18T11:10:48;7.90;;;4.22;;
36799;SDS011;22752;51.960;5.886;2022-08-18T11:13:26;4.70;;;3.50;;
36799;SDS011;22752;51.960;5.886;2022-08-18T11:18:54;8.30;;;3.70;;
36799;SDS011;22752;51.960;5.886;2022-08-18T11:21:49;7.18;;;4.50;;
36799;SDS011;22752;51.960;5.886;2022-08-18T11:24:21;6.97;;;4.00;;
36799;SDS011;22752;51.960;5.886;2022-08-18T11:26:59;5.93;;;3.40;;
36799;SDS011;22752;51.960;5.886;2022-08-18T11:29:30;7.30;;;3.78;;
36799;SDS011;22752;51.960;5.886;2022-08-18T11:42:51;4.53;;;3.38;;
36799;SDS011;22752;51.960;5.886;2022-08-18T11:45:47;7.28;;;4.32;;
36799;SDS011;22752;51.960;5.886;2022-08-18T11:56:29;4.35;;;3.53;;
36799;SDS011;22752;51.960;5.886;2022-08-18T11:59:00;5.15;;;3.50;;
36799;SDS011;22752;51.960;5.886;2022-08-18T12:07:02;5.10;;;3.60;;
36799;SDS011;22752;51.960;5.886;2022-08-18T12:12:28;6.57;;;3.47;;
36799;SDS011;22752;51.960;5.886;2022-08-18T12:17:31;5.03;;;3.50;;
36799;SDS011;22752;51.960;5.886;2022-08-18T12:19:57;6.68;;;3.67;;
36799;SDS011;22752;51.960;5.886;2022-08-18T12:22:25;4.22;;;3.20;;
36799;SDS011;22752;51.960;5.886;2022-08-18T12:24:55;7.18;;;3.38;;
36799;SDS011;22752;51.960;5.886;2022-08-18T12:27:22;7.97;;;3.70;;
36799;SDS011;22752;51.960;5.886;2022-08-18T12:29:49;6.00;;;3.55;;
36799;SDS011;22752;51.960;5.886;2022-08-18T12:32:20;4.53;;;3.08;;
36799;SDS011;22752;51.960;5.886;2022-08-18T12:34:47;3.85;;;2.90;;
36799;SDS011;22752;51.960;5.886;2022-08-18T12:37:14;3.05;;;2.75;;
36799;SDS011;22752;51.960;5.886;2022-08-18T12:39:45;4.25;;;2.83;;
36799;SDS011;22752;51.960;5.886;2022-08-18T12:42:11;5.00;;;3.05;;
36799;SDS011;22752;51.960;5.886;2022-08-18T12:44:38;2.70;;;2.50;;
36799;SDS011;22752;51.960;5.886;2022-08-18T12:47:07;3.03;;;2.38;;
36799;SDS011;22752;51.960;5.886;2022-08-18T12:49:36;3.92;;;2.88;;
36799;SDS011;22752;51.960;5.886;2022-08-18T12:52:02;3.78;;;3.33;;
36799;SDS011;22752;51.960;5.886;2022-08-18T12:54:29;3.88;;;2.88;;
36799;SDS011;22752;51.960;5.886;2022-08-18T12:56:55;3.67;;;2.83;;
36799;SDS011;22752;51.960;5.886;2022-08-18T12:59:22;4.30;;;3.10;;
36799;SDS011;22752;51.960;5.886;2022-08-18T13:01:49;4.20;;;3.08;;
36799;SDS011;22752;51.960;5.886;2022-08-18T13:04:14;3.22;;;2.92;;
36799;SDS011;22752;51.960;5.886;2022-08-18T13:06:47;4.45;;;3.22;;
36799;SDS011;22752;51.960;5.886;2022-08-18T13:09:14;5.43;;;3.40;;
36799;SDS011;22752;51.960;5.886;2022-08-18T13:11:40;5.75;;;3.33;;
36799;SDS011;22752;51.960;5.886;2022-08-18T13:14:06;4.18;;;2.95;;
36799;SDS011;22752;51.960;5.886;2022-08-18T13:16:33;4.47;;;3.38;;
36799;SDS011;22752;51.960;5.886;2022-08-18T13:19:00;4.50;;;3.00;;
36799;SDS011;22752;51.960;5.886;2022-08-18T13:21:26;3.45;;;3.15;;
36799;SDS011;22752;51.960;5.886;2022-08-18T13:23:52;4.32;;;3.40;;
36799;SDS011;22752;51.960;5.886;2022-08-18T13:26:29;3.55;;;2.85;;
36799;SDS011;22752;51.960;5.886;2022-08-18T13:29:09;3.05;;;2.70;;
36799;SDS011;22752;51.960;5.886;2022-08-18T13:31:35;3.78;;;2.60;;
36799;SDS011;22752;51.960;5.886;2022-08-18T13:34:02;5.45;;;3.60;;
36799;SDS011;22752;51.960;5.886;2022-08-18T13:36:28;4.30;;;3.33;;
36799;SDS011;22752;51.960;5.886;2022-08-18T13:39:09;5.10;;;3.17;;
36799;SDS011;22752;51.960;5.886;2022-08-18T13:41:41;3.88;;;3.35;;
36799;SDS011;22752;51.960;5.886;2022-08-18T13:44:08;4.72;;;3.53;;
36799;SDS011;22752;51.960;5.886;2022-08-18T13:46:39;6.07;;;3.50;;
36799;SDS011;22752;51.960;5.886;2022-08-18T13:49:10;5.60;;;3.17;;
36799;SDS011;22752;51.960;5.886;2022-08-18T13:51:40;4.55;;;3.17;;
36799;SDS011;22752;51.960;5.886;2022-08-18T13:54:07;4.72;;;3.35;;
36799;SDS011;22752;51.960;5.886;2022-08-18T13:56:34;5.55;;;3.40;;
36799;SDS011;22752;51.960;5.886;2022-08-18T13:59:00;5.60;;;3.40;;
36799;SDS011;22752;51.960;5.886;2022-08-18T14:01:26;5.28;;;3.00;;
36799;SDS011;22752;51.960;5.886;2022-08-18T14:03:51;5.95;;;3.17;;
36799;SDS011;22752;51.960;5.886;2022-08-18T14:06:17;4.28;;;3.10;;
36799;SDS011;22752;51.960;5.886;2022-08-18T14:08:44;4.22;;;3.40;;
36799;SDS011;22752;51.960;5.886;2022-08-18T14:11:10;4.82;;;3.35;;
36799;SDS011;22752;51.960;5.886;2022-08-18T14:13:36;6.85;;;3.50;;
36799;SDS011;22752;51.960;5.886;2022-08-18T14:16:02;6.57;;;3.33;;
36799;SDS011;22752;51.960;5.886;2022-08-18T14:18:28;7.28;;;3.42;;
36799;SDS011;22752;51.960;5.886;2022-08-18T14:20:54;7.63;;;3.30;;
36799;SDS011;22752;51.960;5.886;2022-08-18T14:23:39;7.35;;;3.30;;
36799;SDS011;22752;51.960;5.886;2022-08-18T14:26:23;6.65;;;3.60;;
36799;SDS011;22752;51.960;5.886;2022-08-18T14:29:06;5.35;;;3.60;;
36799;SDS011;22752;51.960;5.886;2022-08-18T14:31:33;6.10;;;3.83;;
36799;SDS011;22752;51.960;5.886;2022-08-18T14:33:59;6.25;;;3.58;;
36799;SDS011;22752;51.960;5.886;2022-08-18T14:36:26;5.53;;;3.00;;
36799;SDS011;22752;51.960;5.886;2022-08-18T14:38:51;4.47;;;3.05;;
36799;SDS011;22752;51.960;5.886;2022-08-18T14:41:17;4.63;;;3.60;;
36799;SDS011;22752;51.960;5.886;2022-08-18T14:43:43;4.80;;;3.35;;
36799;SDS011;22752;51.960;5.886;2022-08-18T14:46:12;3.10;;;2.90;;
36799;SDS011;22752;51.960;5.886;2022-08-18T14:48:38;6.40;;;3.67;;
36799;SDS011;22752;51.960;5.886;2022-08-18T14:51:04;7.25;;;3.42;;
36799;SDS011;22752;51.960;5.886;2022-08-18T14:53:31;4.55;;;3.80;;
36799;SDS011;22752;51.960;5.886;2022-08-18T14:55:58;5.85;;;3.50;;
36799;SDS011;22752;51.960;5.886;2022-08-18T14:58:25;5.28;;;3.55;;
36799;SDS011;22752;51.960;5.886;2022-08-18T15:01:00;5.97;;;3.65;;
36799;SDS011;22752;51.960;5.886;2022-08-18T15:03:28;6.30;;;3.75;;
36799;SDS011;22752;51.960;5.886;2022-08-18T15:05:55;4.72;;;3.58;;
36799;SDS011;22752;51.960;5.886;2022-08-18T15:08:21;4.47;;;3.35;;
36799;SDS011;22752;51.960;5.886;2022-08-18T15:10:47;4.53;;;3.25;;
36799;SDS011;22752;51.960;5.886;2022-08-18T15:13:14;5.25;;;3.13;;
36799;SDS011;22752;51.960;5.886;2022-08-18T15:15:40;3.22;;;2.92;;
36799;SDS011;22752;51.960;5.886;2022-08-18T15:18:07;3.67;;;3.25;;
36799;SDS011;22752;51.960;5.886;2022-08-18T15:20:34;3.42;;;3.13;;
36799;SDS011;22752;51.960;5.886;2022-08-18T15:23:19;3.50;;;3.20;;
36799;SDS011;22752;51.960;5.886;2022-08-18T15:26:03;5.20;;;2.85;;
36799;SDS011;22752;51.960;5.886;2022-08-18T15:28:29;5.88;;;3.83;;
36799;SDS011;22752;51.960;5.886;2022-08-18T15:30:56;4.22;;;3.20;;
36799;SDS011;22752;51.960;5.886;2022-08-18T15:33:21;4.70;;;3.00;;
36799;SDS011;22752;51.960;5.886;2022-08-18T15:35:48;3.58;;;3.25;;
36799;SDS011;22752;51.960;5.886;2022-08-18T15:38:18;4.35;;;3.10;;
36799;SDS011;22752;51.960;5.886;2022-08-18T15:40:53;4.38;;;3.28;;
36799;SDS011;22752;51.960;5.886;2022-08-18T15:43:22;3.53;;;3.10;;
36799;SDS011;22752;51.960;5.886;2022-08-18T15:45:49;5.60;;;3.30;;
36799;SDS011;22752;51.960;5.886;2022-08-18T15:48:16;4.88;;;2.80;;
36799;SDS011;22752;51.960;5.886;2022-08-18T15:50:43;4.88;;;3.10;;
36799;SDS011;22752;51.960;5.886;2022-08-18T15:53:12;5.05;;;3.00;;
36799;SDS011;22752;51.960;5.886;2022-08-18T15:55:40;4.13;;;2.92;;
36799;SDS011;22752;51.960;5.886;2022-08-18T15:58:06;4.55;;;3.13;;
36799;SDS011;22752;51.960;5.886;2022-08-18T16:00:33;3.85;;;2.95;;
36799;SDS011;22752;51.960;5.886;2022-08-18T16:03:00;4.30;;;2.92;;
36799;SDS011;22752;51.960;5.886;2022-08-18T16:05:33;3.53;;;2.92;;
36799;SDS011;22752;51.960;5.886;2022-08-18T16:10:28;4.25;;;3.20;;
36799;SDS011;22752;51.960;5.886;2022-08-18T16:12:56;6.13;;;2.83;;
36799;SDS011;22752;51.960;5.886;2022-08-18T16:15:22;4.07;;;2.90;;
36799;SDS011;22752;51.960;5.886;2022-08-18T16:17:49;4.82;;;3.17;;
36799;SDS011;22752;51.960;5.886;2022-08-18T16:20:17;4.47;;;2.80;;
36799;SDS011;22752;51.960;5.886;2022-08-18T16:22:53;3.30;;;3.00;;
36799;SDS011;22752;51.960;5.886;2022-08-18T16:25:19;3.03;;;2.50;;
36799;SDS011;22752;51.960;5.886;2022-08-18T16:27:45;5.25;;;3.20;;
36799;SDS011;22752;51.960;5.886;2022-08-18T16:30:14;6.43;;;3.22;;
36799;SDS011;22752;51.960;5.886;2022-08-18T16:32:42;3.90;;;2.60;;
36799;SDS011;22752;51.960;5.886;2022-08-18T16:35:09;3.45;;;2.88;;
36799;SDS011;22752;51.960;5.886;2022-08-18T16:37:35;5.78;;;3.17;;
36799;SDS011;22752;51.960;5.886;2022-08-18T16:40:00;4.10;;;2.70;;
36799;SDS011;22752;51.960;5.886;2022-08-18T16:42:26;3.08;;;2.50;;
36799;SDS011;22752;51.960;5.886;2022-08-18T16:44:56;4.25;;;2.70;;
36799;SDS011;22752;51.960;5.886;2022-08-18T16:47:22;4.20;;;2.72;;
36799;SDS011;22752;51.960;5.886;2022-08-18T16:49:49;3.22;;;2.92;;
36799;SDS011;22752;51.960;5.886;2022-08-18T16:52:15;3.38;;;2.47;;
36799;SDS011;22752;51.960;5.886;2022-08-18T16:54:42;4.22;;;3.17;;
36799;SDS011;22752;51.960;5.886;2022-08-18T16:57:08;4.82;;;3.10;;
36799;SDS011;22752;51.960;5.886;2022-08-18T16:59:35;3.97;;;3.08;;
36799;SDS011;22752;51.960;5.886;2022-08-18T17:02:20;3.65;;;2.58;;
36799;SDS011;22752;51.960;5.886;2022-08-18T17:05:05;5.68;;;2.85;;
36799;SDS011;22752;51.960;5.886;2022-08-18T17:07:33;3.80;;;2.67;;
36799;SDS011;22752;51.960;5.886;2022-08-18T17:09:59;3.13;;;2.75;;
36799;SDS011;22752;51.960;5.886;2022-08-18T17:12:25;5.18;;;3.08;;
36799;SDS011;22752;51.960;5.886;2022-08-18T17:14:52;5.00;;;2.85;;
36799;SDS011;22752;51.960;5.886;2022-08-18T17:17:18;3.80;;;2.58;;
36799;SDS011;22752;51.960;5.886;2022-08-18T17:19:45;4.80;;;2.80;;
36799;SDS011;22752;51.960;5.886;2022-08-18T17:22:11;4.18;;;3.08;;
36799;SDS011;22752;51.960;5.886;2022-08-18T17:24:38;3.65;;;2.50;;
36799;SDS011;22752;51.960;5.886;2022-08-18T17:27:09;2.75;;;2.45;;
36799;SDS011;22752;51.960;5.886;2022-08-18T17:32:21;3.22;;;2.38;;
36799;SDS011;22752;51.960;5.886;2022-08-18T17:34:52;3.90;;;2.80;;
36799;SDS011;22752;51.960;5.886;2022-08-18T17:37:25;5.65;;;3.10;;
36799;SDS011;22752;51.960;5.886;2022-08-18T17:39:57;3.72;;;2.75;;
36799;SDS011;22752;51.960;5.886;2022-08-18T17:42:39;3.53;;;3.20;;
36799;SDS011;22752;51.960;5.886;2022-08-18T17:45:06;3.33;;;2.80;;
36799;SDS011;22752;51.960;5.886;2022-08-18T17:47:55;4.75;;;2.63;;
36799;SDS011;22752;51.960;5.886;2022-08-18T17:50:46;3.40;;;2.50;;
36799;SDS011;22752;51.960;5.886;2022-08-18T17:56:06;4.82;;;2.50;;
36799;SDS011;22752;51.960;5.886;2022-08-18T17:58:59;3.60;;;2.65;;
36799;SDS011;22752;51.960;5.886;2022-08-18T18:01:31;3.22;;;2.75;;
36799;SDS011;22752;51.960;5.886;2022-08-18T18:03:59;5.93;;;3.00;;
36799;SDS011;22752;51.960;5.886;2022-08-18T18:06:35;3.13;;;2.80;;
36799;SDS011;22752;51.960;5.886;2022-08-18T18:11:52;3.78;;;2.60;;
36799;SDS011;22752;51.960;5.886;2022-08-18T18:19:45;7.07;;;2.92;;
36799;SDS011;22752;51.960;5.886;2022-08-18T18:24:52;4.38;;;2.83;;